Airport View

Enter AWOS ICAO identifier for current METAR.

ex. KFNL

KMRC 080355Z AUTO 00000KT 7SM CLR 24/24 A2997 RMK A01

8 Jul 2020 04:05

Frequency: 128.625

Phone: 931-379-0844

Other Area AWOS: KLUG - KGZS - KSYI - KM02

TAF KBNA 072320Z 0800/0824 36003KT P6SM VCSH SCT050 BKN150 FM080200 05002KT P6SM FEW050 SCT150 FM081000 00000KT 5SM BR SCT250 FM081300 08003KT P6SM SCT050 BKN120 PROB30 0818/0822 5SM -TSRA BKN050CB